createdAt,value
2018-05-11T00:01:46.406Z,18.37
2018-05-11T00:04:48.909Z,18.17
2018-05-11T00:07:51.456Z,18.01
2018-05-11T00:10:53.976Z,17.98
2018-05-11T00:13:56.483Z,18.01
2018-05-11T00:16:59.019Z,18.08
2018-05-11T00:20:01.577Z,17.87
2018-05-11T00:23:04.084Z,17.86
2018-05-11T00:26:06.631Z,17.75
2018-05-11T00:29:09.102Z,17.77
2018-05-11T00:32:11.665Z,17.94
2018-05-11T00:35:14.195Z,17.64
2018-05-11T00:38:16.726Z,17.53
2018-05-11T00:41:19.233Z,17.68
2018-05-11T00:44:21.740Z,17.66
2018-05-11T00:47:24.349Z,17.57
2018-05-11T00:50:26.859Z,17.54
2018-05-11T00:53:29.363Z,17.69
2018-05-11T00:56:31.924Z,17.40
2018-05-11T00:59:34.488Z,17.49
2018-05-11T01:02:37.016Z,17.34
2018-05-11T01:05:39.500Z,17.29
2018-05-11T01:08:42.025Z,17.31
2018-05-11T01:11:44.577Z,17.40
2018-05-11T01:14:47.075Z,17.33
2018-05-11T01:17:50.273Z,17.04
2018-05-11T01:20:52.802Z,17.24
2018-05-11T01:23:55.362Z,17.13
2018-05-11T01:26:57.918Z,16.63
2018-05-11T01:30:00.438Z,16.82
2018-05-11T01:33:02.978Z,16.97
2018-05-11T01:36:05.516Z,16.97
2018-05-11T01:39:08.026Z,16.79
2018-05-11T01:42:10.608Z,16.92
2018-05-11T01:45:13.132Z,16.61
2018-05-11T01:48:15.670Z,16.35
2018-05-11T01:51:18.222Z,16.57
2018-05-11T01:54:20.725Z,16.21
2018-05-11T01:57:23.274Z,16.58
2018-05-11T02:00:25.867Z,16.69
2018-05-11T02:03:28.469Z,16.40
2018-05-11T02:06:31.035Z,16.23
2018-05-11T02:09:33.567Z,16.01
2018-05-11T02:12:36.127Z,16.14
2018-05-11T02:15:38.676Z,15.99
2018-05-11T02:18:41.230Z,16.20
2018-05-11T02:21:43.735Z,16.34
2018-05-11T02:24:46.278Z,16.23
2018-05-11T02:27:48.775Z,16.19
2018-05-11T02:30:51.290Z,15.91
2018-05-11T02:33:53.833Z,15.83
2018-05-11T02:36:56.402Z,15.76
2018-05-11T02:39:58.913Z,15.98
2018-05-11T02:43:01.580Z,15.68
2018-05-11T02:46:04.262Z,15.93
2018-05-11T02:49:06.777Z,16.03
2018-05-11T02:52:09.347Z,16.00
2018-05-11T02:55:11.868Z,16.21
2018-05-11T02:58:14.391Z,16.04
2018-05-11T03:01:16.919Z,15.91
2018-05-11T03:04:19.448Z,15.81
2018-05-11T03:07:21.986Z,15.73
2018-05-11T03:10:24.608Z,15.77
2018-05-11T03:13:27.256Z,15.60
2018-05-11T03:16:29.752Z,15.56
2018-05-11T03:19:32.347Z,15.62
2018-05-11T03:22:34.912Z,15.53
2018-05-11T03:25:37.527Z,15.59
2018-05-11T03:28:40.046Z,15.69
2018-05-11T03:31:42.555Z,15.81
2018-05-11T03:34:45.101Z,15.86
2018-05-11T03:37:47.643Z,15.47
2018-05-11T03:40:50.201Z,15.74
2018-05-11T03:43:52.799Z,15.66
2018-05-11T03:46:55.310Z,15.76
2018-05-11T03:49:57.971Z,15.86
2018-05-11T03:53:00.677Z,15.58
2018-05-11T03:56:03.209Z,15.80
2018-05-11T03:59:05.798Z,15.60
2018-05-11T04:02:20.958Z,15.71
2018-05-11T04:05:35.433Z,15.30
2018-05-11T04:15:06.980Z,15.49
2018-05-11T04:18:18.227Z,15.45
2018-05-11T04:21:20.833Z,15.53
2018-05-11T04:24:24.187Z,15.40
2018-05-11T04:27:26.872Z,15.58
2018-05-11T04:30:29.488Z,14.77
2018-05-11T04:33:32.136Z,14.92
2018-05-11T04:36:34.784Z,15.15
2018-05-11T04:39:38.647Z,15.28
2018-05-11T04:42:41.295Z,15.37
2018-05-11T04:45:44.702Z,15.39
2018-05-11T04:48:47.272Z,15.13
2018-05-11T04:51:50.860Z,15.31
2018-05-11T04:54:53.398Z,15.33
2018-05-11T04:57:56.037Z,15.47
2018-05-11T05:00:58.605Z,15.41
2018-05-11T05:04:01.227Z,15.41
2018-05-11T05:07:04.276Z,15.35
2018-05-11T05:10:07.603Z,15.41
2018-05-11T05:13:10.958Z,15.39
2018-05-11T05:16:13.734Z,15.24
2018-05-11T05:19:16.383Z,15.37
2018-05-11T05:22:18.940Z,15.43
2018-05-11T05:25:22.391Z,15.48
2018-05-11T05:28:24.953Z,15.49
2018-05-11T05:31:27.559Z,15.53
2018-05-11T05:34:30.165Z,15.55
2018-05-11T05:37:32.722Z,15.42
2018-05-11T05:40:35.872Z,15.51
2018-05-11T05:43:38.451Z,15.37
2018-05-11T05:46:41.011Z,15.44
2018-05-11T05:49:43.604Z,15.28
2018-05-11T05:52:46.178Z,15.42
2018-05-11T05:55:48.796Z,15.27
2018-05-11T05:58:51.354Z,15.31
2018-05-11T06:01:54.003Z,15.45
2018-05-11T06:04:59.118Z,15.44
2018-05-11T06:08:04.671Z,15.46
2018-05-11T06:11:07.293Z,15.59
2018-05-11T06:14:09.872Z,15.53
2018-05-11T06:17:14.530Z,15.47
2018-05-11T06:20:17.119Z,15.58
2018-05-11T06:23:20.602Z,15.74
2018-05-11T06:26:23.203Z,15.43
2018-05-11T06:29:25.770Z,15.68
2018-05-11T06:32:29.035Z,15.67
2018-05-11T06:35:31.636Z,15.65
2018-05-11T06:38:34.314Z,15.70
2018-05-11T06:41:36.954Z,15.66
2018-05-11T06:44:39.650Z,15.47
2018-05-11T06:47:42.179Z,15.42
2018-05-11T06:50:44.709Z,15.29
2018-05-11T06:53:48.250Z,15.43
2018-05-11T06:56:50.847Z,15.28
2018-05-11T06:59:53.372Z,15.29
2018-05-11T07:02:55.970Z,15.36
2018-05-11T07:05:58.498Z,15.44
2018-05-11T07:09:01.025Z,15.11
2018-05-11T07:12:03.741Z,15.22
2018-05-11T07:15:06.304Z,15.40
2018-05-11T07:18:08.874Z,15.40
2018-05-11T07:21:11.470Z,15.39
2018-05-11T07:24:14.135Z,15.38
2018-05-11T07:27:16.686Z,15.34
2018-05-11T07:30:19.209Z,15.37
2018-05-11T07:33:21.755Z,15.44
2018-05-11T07:36:24.455Z,15.29
2018-05-11T07:39:27.002Z,15.36
2018-05-11T07:42:29.527Z,15.41
2018-05-11T07:45:32.145Z,15.29
2018-05-11T07:48:34.694Z,15.09
2018-05-11T07:51:37.334Z,15.07
2018-05-11T07:54:39.786Z,15.16
2018-05-11T07:57:42.352Z,15.00
2018-05-11T08:00:44.898Z,15.06
2018-05-11T08:03:47.463Z,15.26
2018-05-11T08:06:49.968Z,15.51
2018-05-11T08:09:52.485Z,15.72
2018-05-11T08:12:55.023Z,15.86
2018-05-11T08:15:57.541Z,15.38
2018-05-11T08:19:00.091Z,15.78
2018-05-11T08:22:02.599Z,15.89
2018-05-11T08:25:05.455Z,15.53
2018-05-11T08:28:08.017Z,16.01
2018-05-11T08:31:10.539Z,16.10
2018-05-11T08:34:13.101Z,16.25
2018-05-11T08:37:15.661Z,16.18
2018-05-11T08:40:18.235Z,16.33
2018-05-11T08:43:20.794Z,16.48
2018-05-11T08:46:23.370Z,16.63
2018-05-11T08:49:25.897Z,16.42
2018-05-11T08:52:28.504Z,16.79
2018-05-11T08:55:31.002Z,16.69
2018-05-11T08:58:33.506Z,16.77
2018-05-11T09:01:36.073Z,16.44
2018-05-11T09:04:38.578Z,16.99
2018-05-11T09:07:41.099Z,17.07
2018-05-11T09:10:43.661Z,17.02
2018-05-11T09:13:46.206Z,17.12
2018-05-11T09:16:48.743Z,17.12
2018-05-11T09:19:51.262Z,17.11
2018-05-11T09:22:53.774Z,17.15
2018-05-11T09:25:56.296Z,17.09
2018-05-11T09:28:58.812Z,17.13
2018-05-11T09:32:01.482Z,17.17
2018-05-11T09:35:04.052Z,17.26
2018-05-11T09:38:06.602Z,17.12
2018-05-11T09:41:09.129Z,17.07
2018-05-11T09:44:11.694Z,17.03
2018-05-11T09:47:14.277Z,17.12
2018-05-11T09:50:17.875Z,16.84
2018-05-11T09:53:20.420Z,17.24
2018-05-11T09:56:22.962Z,17.00
2018-05-11T09:59:25.522Z,17.35
2018-05-11T10:02:28.110Z,17.53
2018-05-11T10:05:30.725Z,17.73
2018-05-11T10:08:33.505Z,17.65
2018-05-11T10:11:36.020Z,17.72
2018-05-11T10:14:39.346Z,17.75
2018-05-11T10:17:41.914Z,17.99
2018-05-11T10:20:44.540Z,17.95
2018-05-11T10:23:47.062Z,17.59
2018-05-11T10:26:49.609Z,17.39
2018-05-11T10:29:52.163Z,17.65
2018-05-11T10:32:54.695Z,17.86
2018-05-11T10:35:57.216Z,17.85
2018-05-11T10:39:00.533Z,17.80
2018-05-11T10:42:03.039Z,18.01
2018-05-11T10:45:05.583Z,17.86
2018-05-11T10:48:08.141Z,17.82
2018-05-11T10:51:10.658Z,17.87
2018-05-11T10:54:13.214Z,17.56
2018-05-11T10:57:15.729Z,17.40
2018-05-11T11:00:22.153Z,17.66
2018-05-11T11:03:25.454Z,17.69
2018-05-11T11:06:28.936Z,17.76
2018-05-11T11:09:31.507Z,17.42
2018-05-11T11:12:34.087Z,17.63
2018-05-11T11:15:36.629Z,17.74
2018-05-11T11:18:39.195Z,17.73
2018-05-11T11:21:41.782Z,17.77
2018-05-11T11:24:44.310Z,17.77
2018-05-11T11:27:46.880Z,17.80
2018-05-11T11:30:50.426Z,17.70
2018-05-11T11:33:53.049Z,17.83
2018-05-11T11:36:55.673Z,18.08
2018-05-11T11:39:58.254Z,18.21
2018-05-11T11:43:04.950Z,18.28
2018-05-11T11:46:07.527Z,18.20
2018-05-11T11:49:17.018Z,18.60
2018-05-11T11:52:20.809Z,18.73
2018-05-11T11:55:24.873Z,18.59
2018-05-11T11:58:33.849Z,18.40
2018-05-11T12:01:37.259Z,18.09
2018-05-11T12:04:39.908Z,17.97
2018-05-11T12:07:42.531Z,18.12
2018-05-11T12:10:45.083Z,18.09
2018-05-11T12:13:49.029Z,17.89
2018-05-11T12:16:51.633Z,17.53
2018-05-11T12:19:54.344Z,17.63
2018-05-11T12:22:56.930Z,17.53
2018-05-11T12:26:00.664Z,17.81
2018-05-11T12:29:03.518Z,17.62
2018-05-11T12:32:07.106Z,17.66
2018-05-11T12:35:10.565Z,17.86
2018-05-11T12:38:14.229Z,17.67
2018-05-11T12:41:16.887Z,17.71
2018-05-11T12:44:19.392Z,17.71
2018-05-11T12:47:21.998Z,17.46
2018-05-11T12:50:24.533Z,17.58
2018-05-11T12:53:27.101Z,17.75
2018-05-11T12:56:29.646Z,17.89
2018-05-11T12:59:33.465Z,17.68
2018-05-11T13:02:36.072Z,17.51
2018-05-11T13:05:39.537Z,17.47
2018-05-11T13:08:42.098Z,17.43
2018-05-11T13:11:45.565Z,17.58
2018-05-11T13:14:48.145Z,17.65
2018-05-11T13:17:50.734Z,17.50
2018-05-11T13:20:53.358Z,17.45
2018-05-11T13:23:55.947Z,17.40
2018-05-11T13:26:58.551Z,17.56
2018-05-11T13:30:01.100Z,17.54
2018-05-11T13:33:03.678Z,17.41
2018-05-11T13:36:06.214Z,17.54
2018-05-11T13:39:08.904Z,17.56
2018-05-11T13:42:11.486Z,17.31
2018-05-11T13:45:14.085Z,17.20
2018-05-11T13:48:16.794Z,17.20
2018-05-11T13:51:19.275Z,17.19
2018-05-11T13:54:21.834Z,17.06
2018-05-11T13:57:24.437Z,17.15
2018-05-11T14:00:26.941Z,17.08
2018-05-11T14:03:29.666Z,17.00
2018-05-11T14:06:32.239Z,17.01
2018-05-11T14:09:34.806Z,17.01
2018-05-11T14:12:37.404Z,17.10
2018-05-11T14:15:39.948Z,16.94
2018-05-11T14:18:42.588Z,17.16
2018-05-11T14:21:45.143Z,17.16
2018-05-11T14:24:47.745Z,17.16
2018-05-11T14:27:50.263Z,17.03
2018-05-11T14:30:53.734Z,17.23
2018-05-11T14:33:56.306Z,17.36
2018-05-11T14:36:58.853Z,17.46
2018-05-11T14:40:01.445Z,17.28
2018-05-11T14:43:04.156Z,17.27
2018-05-11T14:46:06.773Z,17.38
2018-05-11T14:49:09.373Z,17.37
2018-05-11T14:52:11.962Z,17.59
2018-05-11T14:55:14.996Z,17.73
2018-05-11T14:58:17.664Z,17.57
2018-05-11T15:01:20.263Z,17.44
2018-05-11T15:04:23.007Z,17.50
2018-05-11T15:07:25.581Z,17.49
2018-05-11T15:10:28.323Z,17.61
2018-05-11T15:13:30.936Z,17.37
2018-05-11T15:16:35.291Z,17.51
2018-05-11T15:19:37.934Z,17.53
2018-05-11T15:22:40.506Z,17.39
2018-05-11T15:25:43.208Z,17.21
2018-05-11T15:28:45.850Z,17.26
2018-05-11T15:31:48.492Z,17.14
2018-05-11T15:34:51.053Z,17.29
2018-05-11T15:37:55.554Z,17.40
2018-05-11T15:40:58.837Z,17.32
2018-05-11T15:44:01.417Z,17.26
2018-05-11T15:47:03.970Z,17.61
2018-05-11T15:50:06.624Z,17.35
2018-05-11T15:53:09.237Z,17.61
2018-05-11T15:56:12.002Z,17.71
2018-05-11T15:59:14.785Z,17.73
2018-05-11T16:02:17.415Z,17.83
2018-05-11T16:05:20.100Z,17.53
2018-05-11T16:08:22.837Z,17.74
2018-05-11T16:11:25.499Z,17.63
2018-05-11T16:14:28.206Z,17.71
2018-05-11T16:17:30.808Z,17.70
2018-05-11T16:20:35.350Z,17.75
2018-05-11T16:23:42.438Z,17.70
2018-05-11T16:26:45.994Z,17.58
2018-05-11T16:29:50.036Z,17.64
2018-05-11T16:32:56.499Z,17.46
2018-05-11T16:36:06.739Z,17.54
2018-05-11T16:39:13.927Z,17.45
2018-05-11T16:45:50.119Z,17.61
2018-05-11T16:48:53.895Z,17.54
2018-05-11T16:51:57.277Z,17.61
2018-05-11T16:55:00.021Z,17.45
2018-05-11T16:58:06.101Z,17.26
2018-05-11T17:01:21.563Z,17.12
2018-05-11T17:04:48.771Z,17.38
2018-05-11T17:07:52.056Z,17.44
2018-05-11T17:14:08.758Z,17.24
2018-05-11T17:17:13.818Z,17.37
2018-05-11T17:20:17.348Z,17.04
2018-05-11T17:24:00.805Z,17.11
2018-05-11T17:27:28.027Z,17.22
2018-05-11T17:30:32.317Z,17.12
2018-05-11T17:33:37.854Z,17.24
2018-05-11T17:36:47.199Z,17.12
2018-05-11T17:39:50.297Z,17.05
2018-05-11T17:42:56.594Z,17.17
2018-05-11T17:45:59.351Z,17.06
2018-05-11T17:49:04.579Z,17.14
2018-05-11T17:52:14.970Z,16.97
2018-05-11T17:55:21.182Z,17.13
2018-05-11T17:58:36.268Z,17.02
2018-05-11T18:02:00.998Z,16.93
2018-05-11T18:12:16.723Z,16.92
2018-05-11T18:15:21.114Z,17.04
2018-05-11T18:18:27.637Z,17.10
2018-05-11T18:21:37.463Z,16.63
2018-05-11T18:24:40.319Z,16.62
2018-05-11T18:31:10.574Z,16.65
2018-05-11T18:34:14.186Z,16.65
2018-05-11T18:37:17.197Z,16.70
2018-05-11T18:40:21.006Z,16.89
2018-05-11T18:43:24.142Z,16.87
2018-05-11T18:46:38.458Z,16.81
2018-05-11T18:49:42.132Z,16.81
2018-05-11T18:52:46.664Z,16.76
2018-05-11T18:55:49.447Z,16.75
2018-05-11T18:58:53.258Z,16.77
2018-05-11T19:01:55.908Z,16.74
2018-05-11T19:04:58.516Z,16.83
2018-05-11T19:08:01.326Z,16.84
2018-05-11T19:11:04.230Z,16.74
2018-05-11T19:14:09.509Z,16.83
2018-05-11T19:17:12.325Z,16.70
2018-05-11T19:20:21.866Z,16.73
2018-05-11T19:23:24.816Z,16.80
2018-05-11T19:26:30.176Z,16.62
2018-05-11T19:29:34.534Z,16.51
2018-05-11T19:32:38.213Z,16.51
2018-05-11T19:35:41.228Z,16.45
2018-05-11T19:38:44.043Z,16.50
2018-05-11T19:41:47.000Z,16.42
2018-05-11T19:44:50.040Z,16.32
2018-05-11T19:47:57.852Z,16.32
2018-05-11T19:51:00.591Z,16.30
2018-05-11T19:54:10.750Z,16.32
2018-05-11T19:57:20.649Z,16.50
2018-05-11T20:00:23.828Z,16.44
2018-05-11T20:03:26.668Z,16.27
2018-05-11T20:06:30.505Z,16.15
2018-05-11T20:09:40.020Z,16.21
2018-05-11T20:12:43.447Z,16.11
2018-05-11T20:15:48.752Z,16.08
2018-05-11T20:18:53.550Z,16.64
2018-05-11T20:21:57.222Z,16.70
2018-05-11T20:25:00.135Z,16.57
2018-05-11T20:31:29.555Z,16.31
2018-05-11T20:34:32.807Z,16.17
2018-05-11T20:37:41.660Z,16.11
2018-05-11T20:40:47.310Z,16.09
2018-05-11T20:43:51.372Z,16.07
2018-05-11T20:46:54.391Z,15.95
2018-05-11T20:49:59.266Z,15.98
2018-05-11T20:53:02.881Z,16.03
2018-05-11T20:56:20.440Z,15.95
2018-05-11T20:59:24.190Z,15.93
2018-05-11T21:02:26.935Z,15.89
2018-05-11T21:05:33.971Z,15.84
2018-05-11T21:08:36.624Z,15.86
2018-05-11T21:11:39.431Z,15.85
2018-05-11T21:14:42.298Z,15.82
2018-05-11T21:17:45.032Z,15.79
2018-05-11T21:20:48.711Z,15.76
2018-05-11T21:23:51.336Z,15.79
2018-05-11T21:26:54.762Z,15.78
2018-05-11T21:29:59.595Z,15.77
2018-05-11T21:34:24.452Z,15.75
2018-05-11T21:37:28.317Z,15.83
2018-05-11T21:40:33.394Z,15.79
2018-05-11T21:43:36.693Z,15.77
2018-05-11T21:46:39.319Z,15.75
2018-05-11T21:49:56.212Z,15.73
2018-05-11T21:52:58.943Z,15.78
2018-05-11T21:56:07.487Z,15.78
2018-05-11T21:59:11.052Z,15.74
2018-05-11T22:02:14.363Z,15.75
2018-05-11T22:05:19.685Z,15.72
2018-05-11T22:08:22.567Z,15.72
2018-05-11T22:11:44.300Z,16.36
2018-05-11T22:18:17.512Z,16.35
2018-05-11T22:22:02.778Z,16.03
2018-05-11T22:25:13.688Z,16.03
2018-05-11T22:28:17.190Z,16.01
2018-05-11T23:08:26.942Z,15.58
2018-05-11T23:11:29.517Z,15.46
2018-05-11T23:14:42.365Z,15.60
2018-05-11T23:17:45.064Z,15.47
2018-05-11T23:20:51.550Z,15.37
2018-05-11T23:23:54.242Z,15.24
2018-05-11T23:26:58.131Z,15.35
2018-05-11T23:30:02.822Z,15.26
2018-05-11T23:33:05.525Z,15.09
2018-05-11T23:36:08.801Z,15.19
2018-05-11T23:39:13.540Z,15.15
2018-05-11T23:42:17.363Z,15.01
2018-05-11T23:45:23.913Z,15.00
2018-05-11T23:48:27.366Z,15.00
2018-05-11T23:51:30.145Z,14.83
2018-05-11T23:54:33.689Z,14.69
2018-05-11T23:57:38.112Z,14.74
